sensor_id;sensor_type;location;lat;lon;timestamp;pressure;altitude;pressure_sealevel;temperature;humidity
11643;BME280;5877;50.930;6.918;2023-12-20T00:04:14;100929.28;;;10.45;100.00
11643;BME280;5877;50.930;6.918;2023-12-20T00:09:08;100897.19;;;9.96;100.00
11643;BME280;5877;50.930;6.918;2023-12-20T00:14:00;100810.03;;;9.48;100.00
11643;BME280;5877;50.930;6.918;2023-12-20T00:18:52;100927.47;;;10.19;100.00
11643;BME280;5877;50.930;6.918;2023-12-20T00:23:45;100896.00;;;10.19;100.00
11643;BME280;5877;50.930;6.918;2023-12-20T00:28:43;100781.03;;;9.63;100.00
11643;BME280;5877;50.930;6.918;2023-12-20T00:33:35;100901.06;;;10.27;100.00
11643;BME280;5877;50.930;6.918;2023-12-20T00:38:28;100975.44;;;9.93;100.00
11643;BME280;5877;50.930;6.918;2023-12-20T00:43:20;100952.91;;;10.12;100.00
11643;BME280;5877;50.930;6.918;2023-12-20T00:48:15;100840.03;;;9.39;100.00
11643;BME280;5877;50.930;6.918;2023-12-20T00:53:07;100967.00;;;10.04;100.00
11643;BME280;5877;50.930;6.918;2023-12-20T00:58:01;100779.19;;;8.69;100.00
11643;BME280;5877;50.930;6.918;2023-12-20T01:02:53;100846.66;;;9.22;100.00
11643;BME280;5877;50.930;6.918;2023-12-20T18:28:57;100649.31;;;10.00;76.34
11643;BME280;5877;50.930;6.918;2023-12-20T18:33:49;100678.28;;;10.19;76.02
11643;BME280;5877;50.930;6.918;2023-12-20T18:38:42;100684.84;;;10.48;75.56
11643;BME280;5877;50.930;6.918;2023-12-20T18:43:35;100688.19;;;10.68;75.14
11643;BME280;5877;50.930;6.918;2023-12-20T18:48:29;100683.56;;;10.63;74.90
11643;BME280;5877;50.930;6.918;2023-12-20T18:53:22;100643.19;;;10.26;75.86
11643;BME280;5877;50.930;6.918;2023-12-20T18:58:18;100658.47;;;10.74;75.19
11643;BME280;5877;50.930;6.918;2023-12-20T19:03:10;100524.59;;;9.66;76.17
11643;BME280;5877;50.930;6.918;2023-12-20T19:08:03;100618.19;;;10.11;76.24
11643;BME280;5877;50.930;6.918;2023-12-20T19:12:55;100612.88;;;10.37;75.66
11643;BME280;5877;50.930;6.918;2023-12-20T19:17:49;100549.44;;;10.08;74.84
11643;BME280;5877;50.930;6.918;2023-12-20T19:22:41;100578.28;;;10.08;76.58
11643;BME280;5877;50.930;6.918;2023-12-20T19:27:35;100632.16;;;10.49;76.54
11643;BME280;5877;50.930;6.918;2023-12-20T19:32:28;100626.28;;;10.54;76.86
11643;BME280;5877;50.930;6.918;2023-12-20T19:37:22;100621.19;;;10.59;77.28
11643;BME280;5877;50.930;6.918;2023-12-20T19:42:17;100603.63;;;10.59;77.05
11643;BME280;5877;50.930;6.918;2023-12-20T19:47:16;100615.53;;;10.62;77.28
11643;BME280;5877;50.930;6.918;2023-12-20T19:52:17;100503.25;;;10.07;77.59
11643;BME280;5877;50.930;6.918;2023-12-20T19:57:10;100533.88;;;10.14;79.37
11643;BME280;5877;50.930;6.918;2023-12-20T20:02:09;100573.75;;;10.60;80.16
11643;BME280;5877;50.930;6.918;2023-12-20T20:07:01;100420.69;;;9.85;77.38
11643;BME280;5877;50.930;6.918;2023-12-20T20:11:55;100458.69;;;10.01;78.65
11643;BME280;5877;50.930;6.918;2023-12-20T20:16:47;100553.53;;;10.36;82.81
11643;BME280;5877;50.930;6.918;2023-12-20T20:21:42;100516.31;;;10.21;83.36
11643;BME280;5877;50.930;6.918;2023-12-20T20:26:35;100559.53;;;10.43;84.86
11643;BME280;5877;50.930;6.918;2023-12-20T20:31:29;100537.91;;;10.72;84.54
11643;BME280;5877;50.930;6.918;2023-12-20T20:36:26;100477.00;;;10.07;82.91
11643;BME280;5877;50.930;6.918;2023-12-20T20:41:18;100538.38;;;10.63;82.45
11643;BME280;5877;50.930;6.918;2023-12-20T20:46:14;100521.16;;;10.73;82.54
11643;BME280;5877;50.930;6.918;2023-12-20T20:51:09;100497.84;;;10.59;82.08
11643;BME280;5877;50.930;6.918;2023-12-20T20:56:03;100362.50;;;9.70;82.60
11643;BME280;5877;50.930;6.918;2023-12-20T21:00:57;100526.13;;;10.57;84.62
11643;BME280;5877;50.930;6.918;2023-12-20T21:05:49;100529.34;;;10.59;84.37
11643;BME280;5877;50.930;6.918;2023-12-20T21:10:42;100505.44;;;10.67;84.34
11643;BME280;5877;50.930;6.918;2023-12-20T21:15:37;100516.00;;;10.35;85.08
11643;BME280;5877;50.930;6.918;2023-12-20T21:20:31;100393.72;;;9.78;85.50
11643;BME280;5877;50.930;6.918;2023-12-20T21:25:23;100444.38;;;10.35;82.60
11643;BME280;5877;50.930;6.918;2023-12-20T21:30:15;100490.19;;;10.57;82.61
11643;BME280;5877;50.930;6.918;2023-12-20T21:35:08;100461.53;;;10.56;83.87
11643;BME280;5877;50.930;6.918;2023-12-20T21:40:06;100335.75;;;9.61;88.93
11643;BME280;5877;50.930;6.918;2023-12-20T21:45:00;100475.44;;;10.56;87.63
11643;BME280;5877;50.930;6.918;2023-12-20T21:49:52;100459.53;;;10.76;86.56
11643;BME280;5877;50.930;6.918;2023-12-20T21:54:44;100428.25;;;10.31;87.75
11643;BME280;5877;50.930;6.918;2023-12-20T21:59:38;100402.66;;;10.27;92.69
11643;BME280;5877;50.930;6.918;2023-12-20T22:04:31;100389.34;;;9.97;98.55
11643;BME280;5877;50.930;6.918;2023-12-20T22:09:25;100388.31;;;10.29;95.70
11643;BME280;5877;50.930;6.918;2023-12-20T22:14:17;100358.16;;;9.89;98.99
11643;BME280;5877;50.930;6.918;2023-12-20T22:19:09;100433.56;;;10.25;100.00
11643;BME280;5877;50.930;6.918;2023-12-20T22:24:04;100427.03;;;10.52;99.16
11643;BME280;5877;50.930;6.918;2023-12-20T22:28:57;100432.84;;;10.36;100.00
11643;BME280;5877;50.930;6.918;2023-12-20T22:33:50;100323.16;;;9.76;100.00
11643;BME280;5877;50.930;6.918;2023-12-20T22:38:42;100389.78;;;10.19;100.00
11643;BME280;5877;50.930;6.918;2023-12-20T22:43:37;100294.22;;;9.65;100.00
11643;BME280;5877;50.930;6.918;2023-12-20T22:48:30;100365.72;;;9.72;100.00
11643;BME280;5877;50.930;6.918;2023-12-20T22:53:23;100360.63;;;10.08;100.00
11643;BME280;5877;50.930;6.918;2023-12-20T22:58:16;100264.22;;;9.29;100.00
11643;BME280;5877;50.930;6.918;2023-12-20T23:03:09;100355.63;;;10.00;100.00
11643;BME280;5877;50.930;6.918;2023-12-20T23:08:39;100384.84;;;10.35;100.00
11643;BME280;5877;50.930;6.918;2023-12-20T23:13:31;100355.97;;;10.11;100.00
11643;BME280;5877;50.930;6.918;2023-12-20T23:18:23;100366.03;;;10.14;100.00
11643;BME280;5877;50.930;6.918;2023-12-20T23:23:16;100369.97;;;10.48;100.00
11643;BME280;5877;50.930;6.918;2023-12-20T23:28:08;100332.72;;;10.39;100.00
11643;BME280;5877;50.930;6.918;2023-12-20T23:33:04;100358.59;;;11.09;100.00
11643;BME280;5877;50.930;6.918;2023-12-20T23:38:03;100348.19;;;10.84;100.00
11643;BME280;5877;50.930;6.918;2023-12-20T23:42:57;100259.13;;;10.34;100.00
11643;BME280;5877;50.930;6.918;2023-12-20T23:47:49;100245.88;;;10.29;100.00
11643;BME280;5877;50.930;6.918;2023-12-20T23:52:43;100206.31;;;10.30;100.00
11643;BME280;5877;50.930;6.918;2023-12-20T23:57:38;100281.50;;;10.36;100.00
